Time;durP1;ratioP1;P1;durP2;ratioP2;P2;SDS_P1;SDS_P2;PMS_P1;PMS_P2;Temp;Humidity;BMP_temperature;BMP_pressure;BME280_temperature;BME280_humidity;BME280_pressure;Samples;Min_cycle;Max_cycle;Signal;HPM_P1;HPM_P2
2023/09/30 00:02:52;;;;;;;3.47;1.27;;;17.50;99.90;;;;;;5089076;28;20028;-68
2023/09/30 00:05:20;;;;;;;0.93;0.68;;;17.60;99.90;;;;;;5055009;28;20563;-67
2023/09/30 00:07:58;;;;;;;3.97;1.40;;;17.60;99.90;;;;;;5090751;28;20024;-67
2023/09/30 00:11:15;;;;;;;3.92;1.20;;;17.60;99.90;;;;;;5084914;28;20074;-68
2023/09/30 00:13:49;;;;;;;2.05;1.20;;;17.60;99.90;;;;;;5067442;28;20056;-68
2023/09/30 00:16:20;;;;;;;3.03;1.55;;;17.60;99.90;;;;;;5091155;28;20166;-68
2023/09/30 00:18:55;;;;;;;2.00;1.30;;;17.60;99.90;;;;;;5087693;28;20024;-68
2023/09/30 00:21:30;;;;;;;4.55;1.10;;;17.60;99.90;;;;;;5064635;28;20024;-68
2023/09/30 00:24:37;;;;;;;3.30;1.25;;;17.60;99.90;;;;;;5091581;28;20387;-68
2023/09/30 00:27:08;;;;;;;5.95;1.60;;;17.60;99.90;;;;;;5012627;28;20240;-68
2023/09/30 00:29:35;;;;;;;7.60;1.20;;;17.60;99.90;;;;;;5009777;28;20113;-67
2023/09/30 00:32:01;;;;;;;3.78;2.03;;;17.60;99.90;;;;;;5025962;28;20049;-68
2023/09/30 00:34:26;;;;;;;6.53;1.70;;;17.60;99.90;;;;;;5028515;28;20723;-68
2023/09/30 00:36:52;;;;;;;3.67;1.35;;;17.70;99.90;;;;;;5012057;28;20037;-68
2023/09/30 00:39:21;;;;;;;2.30;1.60;;;17.60;99.90;;;;;;5024058;28;20037;-68
2023/09/30 00:41:46;;;;;;;3.90;1.48;;;17.70;99.90;;;;;;5016419;28;20041;-68
2023/09/30 00:45:34;;;;;;;8.57;1.35;;;17.70;99.90;;;;;;5028427;28;20156;-68
2023/09/30 00:48:01;;;;;;;5.18;1.38;;;17.60;99.90;;;;;;4970500;28;20027;-67
2023/09/30 00:50:51;;;;;;;4.60;1.65;;;17.60;99.90;;;;;;4973036;28;20030;-68
2023/09/30 00:53:56;;;;;;;5.05;1.92;;;17.60;99.90;;;;;;4971366;28;20081;-67
2023/09/30 00:57:13;;;;;;;3.67;1.73;;;17.50;99.90;;;;;;4969459;28;20042;-67
2023/09/30 01:00:14;;;;;;;6.63;1.58;;;17.50;99.90;;;;;;4950734;28;20200;-67
2023/09/30 01:03:03;;;;;;;;;;;17.50;99.90;;;;;;4953775;28;20042;-67
2023/09/30 01:05:45;;;;;;;3.15;1.63;;;17.50;99.90;;;;;;5007676;28;19978;-67
2023/09/30 01:09:01;;;;;;;5.13;1.55;;;17.50;99.90;;;;;;5026148;28;20021;-67
2023/09/30 01:11:27;;;;;;;4.30;1.38;;;17.60;99.90;;;;;;4984455;28;20049;-68
2023/09/30 01:13:53;;;;;;;3.92;1.70;;;17.60;99.90;;;;;;5024103;28;20037;-67
2023/09/30 01:16:21;;;;;;;7.90;2.00;;;17.70;99.90;;;;;;5030106;28;20028;-67
2023/09/30 01:18:57;;;;;;;4.05;2.45;;;17.70;99.90;;;;;;5078262;28;20039;-68
2023/09/30 01:22:04;;;;;;;1.33;1.02;;;17.80;99.90;;;;;;5064948;28;20033;-68
2023/09/30 01:24:30;;;;;;;5.55;2.20;;;17.70;99.90;;;;;;5082897;28;20032;-67
2023/09/30 01:27:19;;;;;;;4.07;2.10;;;17.80;99.90;;;;;;5069616;28;20377;-67
2023/09/30 01:29:45;;;;;;;2.28;1.25;;;17.70;99.90;;;;;;5058956;28;20109;-68
2023/09/30 01:33:19;;;;;;;10.90;2.20;;;17.70;99.90;;;;;;5099833;28;20443;-68
2023/09/30 01:35:44;;;;;;;7.25;2.15;;;17.70;99.90;;;;;;5094496;28;20067;-68
2023/09/30 01:38:20;;;;;;;2.83;1.35;;;17.70;99.90;;;;;;5074696;28;20044;-68
2023/09/30 01:41:23;;;;;;;4.38;1.58;;;17.70;99.90;;;;;;5086276;28;20036;-68
2023/09/30 01:47:36;;;;;;;4.68;1.70;;;17.70;99.90;;;;;;5007828;28;20049;-68
2023/09/30 01:53:52;;;;;;;2.67;1.77;;;17.60;99.90;;;;;;5027836;28;20434;-68
2023/09/30 01:56:34;;;;;;;4.03;1.30;;;17.60;99.90;;;;;;5019317;28;20025;-68
2023/09/30 01:59:40;;;;;;;1.95;1.15;;;17.50;99.90;;;;;;5011405;28;20029;-68
2023/09/30 02:02:15;;;;;;;5.07;1.85;;;17.50;99.90;;;;;;5038003;28;20556;-68
2023/09/30 02:04:41;;;;;;;4.63;1.80;;;17.50;99.90;;;;;;5021202;28;20056;-68
2023/09/30 02:07:07;;;;;;;2.25;1.40;;;17.50;99.90;;;;;;5039660;28;20402;-68
2023/09/30 02:10:14;;;;;;;6.45;1.70;;;17.50;99.90;;;;;;5012977;28;20371;-68
2023/09/30 02:16:30;;;;;;;2.95;1.42;;;17.50;99.90;;;;;;4981990;28;20491;-68
2023/09/30 02:19:13;;;;;;;5.05;1.50;;;17.40;99.90;;;;;;4992065;28;20109;-68
2023/09/30 02:21:43;;;;;;;2.85;1.25;;;17.40;99.90;;;;;;4965326;28;20121;-68
2023/09/30 02:24:27;;;;;;;9.70;2.33;;;17.30;99.90;;;;;;4955914;28;20035;-68
2023/09/30 02:27:05;;;;;;;2.78;1.77;;;17.30;99.90;;;;;;4972817;28;20062;-68
2023/09/30 02:30:04;;;;;;;3.13;1.50;;;17.30;99.90;;;;;;5001916;28;20115;-68
2023/09/30 02:33:18;;;;;;;5.75;1.55;;;17.20;99.90;;;;;;4982509;28;20126;-68
2023/09/30 02:35:59;;;;;;;5.57;1.73;;;17.40;99.90;;;;;;4946898;29;20122;-69
2023/09/30 02:39:01;;;;;;;4.97;1.75;;;17.40;99.90;;;;;;4945662;29;20028;-67
2023/09/30 02:41:37;;;;;;;4.60;1.85;;;17.30;99.90;;;;;;4952160;29;20043;-67
2023/09/30 02:44:20;;;;;;;5.68;1.58;;;17.30;99.90;;;;;;4936191;29;20043;-67
2023/09/30 02:46:46;;;;;;;4.10;1.95;;;17.30;99.90;;;;;;4936342;29;20043;-67
2023/09/30 02:49:12;;;;;;;3.65;1.52;;;17.20;99.90;;;;;;4970616;28;20491;-68
2023/09/30 02:51:53;;;;;;;9.25;1.75;;;17.20;99.90;;;;;;4970845;28;20042;-68
2023/09/30 02:54:21;;;;;;;;;;;17.10;99.90;;;;;;4939940;28;20030;-68
2023/09/30 02:57:48;;;;;;;4.75;1.80;;;17.10;99.90;;;;;;4935700;28;19973;-68
2023/09/30 03:00:25;;;;;;;7.15;1.63;;;17.10;99.90;;;;;;4970907;28;20557;-67
2023/09/30 03:03:04;;;;;;;7.68;2.08;;;17.00;99.90;;;;;;5015569;28;20037;-68
2023/09/30 03:05:33;;;;;;;6.88;2.22;;;17.00;99.90;;;;;;5013175;28;20075;-68
2023/09/30 03:08:25;;;;;;;2.78;1.40;;;16.90;99.90;;;;;;5029896;28;20030;-68
2023/09/30 03:10:56;;;;;;;9.60;2.13;;;16.90;99.90;;;;;;5040485;28;20095;-69
2023/09/30 03:13:22;;;;;;;3.10;1.65;;;16.90;99.90;;;;;;5082769;28;20027;-68
2023/09/30 03:15:56;;;;;;;8.75;2.20;;;16.90;99.90;;;;;;5086921;28;20571;-68
2023/09/30 03:18:48;;;;;;;2.85;1.52;;;16.90;99.90;;;;;;5092725;28;20112;-68
2023/09/30 03:21:42;;;;;;;9.13;1.88;;;16.80;99.90;;;;;;5090452;28;20407;-68
2023/09/30 03:24:09;;;;;;;3.45;1.70;;;16.90;99.90;;;;;;5077782;28;20158;-67
2023/09/30 03:26:48;;;;;;;5.75;1.85;;;16.90;99.90;;;;;;5083954;28;20039;-67
2023/09/30 03:29:51;;;;;;;5.15;2.47;;;16.80;99.90;;;;;;5092165;28;20039;-67
2023/09/30 03:32:39;;;;;;;7.18;2.40;;;16.70;99.90;;;;;;5095064;28;20028;-67
2023/09/30 03:35:42;;;;;;;5.35;2.28;;;16.70;99.90;;;;;;5090025;28;20649;-67
2023/09/30 03:38:12;;;;;;;6.13;1.83;;;16.70;99.90;;;;;;5092217;28;20745;-67
2023/09/30 03:41:04;;;;;;;8.93;2.55;;;16.70;99.90;;;;;;5090376;28;20337;-67
2023/09/30 03:43:42;;;;;;;;;;;16.70;99.90;;;;;;5085300;28;20047;-67
2023/09/30 03:46:14;;;;;;;4.43;2.08;;;16.70;99.90;;;;;;5074463;28;19916;-67
2023/09/30 03:52:26;;;;;;;4.45;1.83;;;16.80;99.90;;;;;;5027018;28;20485;-67
2023/09/30 03:55:17;;;;;;;5.15;1.92;;;16.70;99.90;;;;;;5028477;28;20156;-67
2023/09/30 03:58:26;;;;;;;6.30;1.67;;;16.80;99.90;;;;;;5029340;28;20041;-68
2023/09/30 04:01:17;;;;;;;10.65;2.17;;;16.70;99.90;;;;;;4966107;28;20526;-67
2023/09/30 04:04:50;;;;;;;4.13;1.95;;;16.80;99.90;;;;;;4969743;28;20046;-68
2023/09/30 04:07:56;;;;;;;6.13;2.30;;;16.80;99.90;;;;;;4969493;28;20051;-67
2023/09/30 04:10:25;;;;;;;5.22;2.15;;;16.80;99.90;;;;;;4912355;29;20048;-67
2023/09/30 04:13:00;;;;;;;7.50;2.80;;;16.80;99.90;;;;;;4912845;29;20055;-67
2023/09/30 04:15:31;;;;;;;8.77;2.72;;;16.70;99.90;;;;;;4911725;29;20055;-68
2023/09/30 04:17:57;;;;;;;9.77;2.63;;;16.60;99.90;;;;;;4920759;29;20043;-67
2023/09/30 04:20:23;;;;;;;9.27;2.60;;;16.60;99.90;;;;;;4919801;29;20044;-67
2023/09/30 04:23:02;;;;;;;8.73;3.05;;;16.50;99.90;;;;;;4927048;29;20514;-67
2023/09/30 04:25:49;;;;;;;7.47;2.78;;;16.50;99.90;;;;;;4911266;29;20047;-67
2023/09/30 04:28:19;;;;;;;6.63;2.72;;;16.40;99.90;;;;;;4920786;28;20051;-67
2023/09/30 04:30:51;;;;;;;6.07;2.20;;;16.40;99.90;;;;;;4953234;28;20051;-67
2023/09/30 04:33:58;;;;;;;8.02;2.40;;;16.30;99.90;;;;;;4960780;28;20557;-67
2023/09/30 04:36:24;;;;;;;4.72;3.08;;;16.30;99.90;;;;;;4946554;28;20047;-67
2023/09/30 04:39:12;;;;;;;7.93;3.00;;;16.20;99.90;;;;;;5008299;28;20111;-67
2023/09/30 04:42:01;;;;;;;7.90;3.08;;;16.20;99.90;;;;;;5014132;28;20120;-67
2023/09/30 04:44:32;;;;;;;7.50;3.80;;;16.10;99.90;;;;;;5011525;28;20017;-68
2023/09/30 04:46:59;;;;;;;11.60;2.65;;;16.00;99.90;;;;;;5046596;28;20502;-67
2023/09/30 04:49:25;;;;;;;9.25;3.03;;;15.90;99.90;;;;;;5102459;28;20130;-67
2023/09/30 04:52:00;;;;;;;3.92;2.30;;;15.90;99.90;;;;;;5083808;28;20523;-68
2023/09/30 04:54:29;;;;;;;7.78;2.45;;;15.80;99.90;;;;;;5081945;28;20344;-67
2023/09/30 04:57:14;;;;;;;6.28;2.40;;;15.80;99.90;;;;;;5087085;28;20527;-67
2023/09/30 04:59:39;;;;;;;5.93;3.00;;;15.80;99.90;;;;;;5088737;28;20483;-67
2023/09/30 05:02:17;;;;;;;8.40;3.05;;;15.80;99.90;;;;;;5087991;28;20031;-67
2023/09/30 05:04:43;;;;;;;4.55;2.20;;;15.80;99.90;;;;;;5087799;28;20067;-67
2023/09/30 05:07:24;;;;;;;13.02;2.78;;;15.80;99.90;;;;;;5087340;28;20537;-67
2023/09/30 05:10:24;;;;;;;7.10;2.58;;;15.80;99.90;;;;;;5088291;28;20112;-67
2023/09/30 05:12:54;;;;;;;6.55;3.08;;;15.80;99.90;;;;;;5084516;28;20555;-67
2023/09/30 05:15:32;;;;;;;7.95;2.78;;;15.80;99.90;;;;;;5084072;28;20042;-68
2023/09/30 05:18:04;;;;;;;4.72;2.60;;;15.80;99.90;;;;;;5090660;28;20023;-67
2023/09/30 05:20:49;;;;;;;9.95;3.42;;;15.80;99.90;;;;;;5090116;28;20030;-67
2023/09/30 05:23:21;;;;;;;3.03;1.95;;;15.90;99.90;;;;;;5110308;28;20031;-67
2023/09/30 05:26:34;;;;;;;5.72;2.33;;;15.90;99.90;;;;;;5093853;28;20376;-67
2023/09/30 05:29:16;;;;;;;5.78;2.40;;;16.00;99.90;;;;;;5090317;28;20486;-67
2023/09/30 05:31:54;;;;;;;10.20;2.83;;;16.00;99.90;;;;;;5085959;28;20024;-67
2023/09/30 05:34:24;;;;;;;7.93;2.47;;;16.10;99.90;;;;;;5089786;28;20020;-67
2023/09/30 05:36:55;;;;;;;7.15;2.58;;;16.00;99.90;;;;;;5086416;28;20428;-67
2023/09/30 05:39:21;;;;;;;6.90;2.83;;;16.10;99.90;;;;;;5094165;28;20380;-67
2023/09/30 05:42:32;;;;;;;5.30;2.92;;;16.10;99.90;;;;;;5097860;28;20036;-67
2023/09/30 05:45:01;;;;;;;6.37;3.20;;;16.10;99.90;;;;;;5081244;28;20044;-67
2023/09/30 05:47:56;;;;;;;4.97;2.20;;;16.10;99.90;;;;;;5085229;28;20368;-67
2023/09/30 05:50:26;;;;;;;7.03;2.17;;;16.10;99.90;;;;;;5089550;28;20058;-67
2023/09/30 05:53:10;;;;;;;5.13;2.40;;;16.10;99.90;;;;;;5077072;28;20103;-67
2023/09/30 05:55:43;;;;;;;4.20;2.33;;;16.10;99.90;;;;;;5086432;28;20020;-67
2023/09/30 05:58:21;;;;;;;6.90;3.00;;;16.10;99.90;;;;;;5075846;28;20044;-67
2023/09/30 06:01:18;;;;;;;8.65;2.72;;;16.00;99.90;;;;;;5089289;28;20103;-67
2023/09/30 06:04:29;;;;;;;5.10;2.05;;;16.00;99.90;;;;;;5089110;28;20142;-67
2023/09/30 06:06:58;;;;;;;12.98;2.50;;;16.00;99.90;;;;;;5035570;28;20040;-67
2023/09/30 06:09:25;;;;;;;11.10;3.35;;;15.90;99.90;;;;;;5006495;28;20049;-67
2023/09/30 06:12:03;;;;;;;7.60;2.50;;;15.90;99.90;;;;;;5022428;28;20029;-67
2023/09/30 06:15:29;;;;;;;6.00;2.53;;;16.00;99.90;;;;;;5049931;28;20032;-68
2023/09/30 06:18:45;;;;;;;8.23;2.42;;;16.00;99.90;;;;;;5048407;28;20042;-67
2023/09/30 06:21:29;;;;;;;4.95;2.60;;;16.10;99.90;;;;;;5091152;27;20028;-67
2023/09/30 06:24:46;;;;;;;4.97;2.28;;;16.10;99.90;;;;;;5076611;28;20095;-68
2023/09/30 06:27:13;;;;;;;2.88;1.88;;;16.10;99.90;;;;;;5092330;28;20500;-68
2023/09/30 06:29:40;;;;;;;8.40;2.60;;;16.20;99.90;;;;;;5095159;28;20028;-68
2023/09/30 06:32:07;;;;;;;7.63;2.42;;;16.30;99.90;;;;;;5091367;28;20134;-68
2023/09/30 06:34:34;;;;;;;10.02;2.70;;;16.40;99.90;;;;;;5103955;28;20030;-68
2023/09/30 06:37:00;;;;;;;6.82;2.50;;;16.30;99.90;;;;;;5106912;28;20476;-68
2023/09/30 06:39:31;;;;;;;13.73;5.40;;;16.30;99.90;;;;;;5113197;28;20057;-67
2023/09/30 06:42:11;;;;;;;11.57;2.42;;;16.20;99.90;;;;;;5106374;28;20685;-67
2023/09/30 06:44:46;;;;;;;9.67;3.00;;;16.20;99.90;;;;;;5106946;28;20032;-67
2023/09/30 06:47:37;;;;;;;6.30;2.65;;;16.20;99.90;;;;;;5090699;28;20087;-67
2023/09/30 06:50:16;;;;;;;;;;;16.40;99.90;;;;;;5076620;28;20483;-67
2023/09/30 06:52:49;;;;;;;10.85;2.35;;;16.30;99.90;;;;;;5078159;28;20010;-67
2023/09/30 06:56:06;;;;;;;11.38;2.22;;;16.30;99.90;;;;;;5087846;28;20635;-67
2023/09/30 06:58:47;;;;;;;5.10;2.33;;;16.40;99.90;;;;;;5085659;28;20040;-67
2023/09/30 07:01:19;;;;;;;27.67;13.23;;;16.40;99.90;;;;;;5091997;28;20050;-67
2023/09/30 07:04:33;;;;;;;10.98;3.92;;;16.40;99.90;;;;;;5092815;28;20036;-67
2023/09/30 07:07:26;;;;;;;6.82;2.13;;;16.50;99.90;;;;;;5026682;28;20064;-67
2023/09/30 07:09:54;;;;;;;8.88;2.10;;;16.30;99.90;;;;;;5029780;28;20029;-67
2023/09/30 07:12:23;;;;;;;10.95;3.25;;;16.40;99.90;;;;;;5029867;28;20041;-67
2023/09/30 07:15:03;;;;;;;10.60;2.30;;;16.40;99.90;;;;;;5029691;28;20037;-67
2023/09/30 07:17:49;;;;;;;4.07;1.85;;;16.30;99.90;;;;;;5027048;28;20052;-67
2023/09/30 07:20:19;;;;;;;7.40;2.20;;;16.40;99.90;;;;;;5017464;28;20034;-67
2023/09/30 07:23:29;;;;;;;5.55;2.10;;;16.50;99.90;;;;;;5026939;28;20034;-67
2023/09/30 07:26:30;;;;;;;11.93;2.78;;;16.60;99.90;;;;;;5010656;28;20037;-67
2023/09/30 07:28:56;;;;;;;15.23;2.80;;;16.70;99.90;;;;;;4952228;28;20468;-67
2023/09/30 07:31:23;;;;;;;3.33;1.95;;;16.70;99.90;;;;;;4976552;28;20502;-67
2023/09/30 07:33:54;;;;;;;11.63;2.85;;;16.70;99.90;;;;;;4975617;28;20027;-68
2023/09/30 07:36:26;;;;;;;6.82;2.55;;;16.80;99.90;;;;;;4979063;28;20054;-68
2023/09/30 07:39:32;;;;;;;3.30;1.30;;;16.90;99.90;;;;;;4971213;28;20035;-67
2023/09/30 07:42:09;;;;;;;2.88;1.40;;;16.90;99.90;;;;;;4970003;28;20039;-68
2023/09/30 07:44:47;;;;;;;6.15;2.05;;;17.00;99.90;;;;;;5047188;28;20045;-67
2023/09/30 07:47:12;;;;;;;5.78;1.83;;;17.10;99.90;;;;;;5041762;28;20037;-68
2023/09/30 07:50:15;;;;;;;8.98;2.45;;;17.00;99.90;;;;;;5031506;28;20409;-68
2023/09/30 07:53:08;;;;;;;10.45;2.05;;;17.20;99.90;;;;;;5029742;28;20038;-68
2023/09/30 07:55:39;;;;;;;4.45;1.98;;;17.20;99.90;;;;;;5049083;28;20082;-67
2023/09/30 07:58:08;;;;;;;6.22;1.60;;;17.10;99.90;;;;;;5049071;28;20048;-68
2023/09/30 08:01:07;;;;;;;10.88;2.20;;;17.30;99.90;;;;;;5048731;28;20036;-67
2023/09/30 08:04:29;;;;;;;11.93;2.05;;;17.40;99.90;;;;;;5042965;28;20124;-68
2023/09/30 08:11:09;;;;;;;3.55;1.73;;;17.30;99.90;;;;;;4927529;29;20050;-68
2023/09/30 08:13:40;;;;;;;7.15;2.08;;;17.40;99.90;;;;;;4925119;29;20027;-68
2023/09/30 08:16:07;;;;;;;10.52;2.13;;;17.20;99.90;;;;;;4930693;28;20036;-68
2023/09/30 08:18:51;;;;;;;4.22;1.60;;;17.40;99.90;;;;;;4954745;28;20038;-68
2023/09/30 08:21:47;;;;;;;17.48;1.90;;;17.60;99.90;;;;;;4965850;28;20038;-68
2023/09/30 08:24:54;;;;;;;5.82;1.27;;;17.70;99.90;;;;;;4969666;28;20070;-67
2023/09/30 08:27:42;;;;;;;4.15;1.17;;;17.60;99.90;;;;;;4878801;29;20059;-68
2023/09/30 08:30:26;;;;;;;8.02;1.95;;;17.60;99.90;;;;;;4893207;29;20510;-68
2023/09/30 08:32:51;;;;;;;7.05;1.38;;;17.70;99.90;;;;;;4893880;29;20040;-68
2023/09/30 08:35:53;;;;;;;14.25;2.03;;;18.00;99.90;;;;;;4922766;28;20518;-68
2023/09/30 08:38:19;;;;;;;5.60;1.70;;;18.00;99.90;;;;;;4969898;28;20039;-68
2023/09/30 08:40:57;;;;;;;6.88;1.65;;;18.30;99.90;;;;;;4965449;28;20049;-68
2023/09/30 08:44:03;;;;;;;6.45;1.33;;;18.10;99.90;;;;;;4969593;28;20491;-68
2023/09/30 08:47:22;;;;;;;4.97;1.88;;;18.40;99.90;;;;;;4999189;28;20113;-68
2023/09/30 08:50:49;;;;;;;5.78;1.75;;;18.40;99.90;;;;;;5023051;28;20037;-68
2023/09/30 08:53:16;;;;;;;3.97;1.63;;;18.50;99.90;;;;;;5012786;28;20052;-68
2023/09/30 08:56:07;;;;;;;7.40;1.98;;;18.60;99.90;;;;;;5036665;28;20024;-68
2023/09/30 08:58:33;;;;;;;4.45;1.20;;;18.60;99.90;;;;;;5048862;28;20090;-68
2023/09/30 09:01:02;;;;;;;4.25;1.33;;;18.50;99.90;;;;;;5037934;28;20033;-68
2023/09/30 09:03:36;;;;;;;4.00;1.63;;;18.70;99.90;;;;;;5028121;28;20032;-68
2023/09/30 09:06:02;;;;;;;4.85;1.48;;;18.80;99.90;;;;;;5027796;28;20033;-68
2023/09/30 09:08:37;;;;;;;10.45;1.65;;;18.90;99.90;;;;;;5036006;28;20029;-68
2023/09/30 09:11:06;;;;;;;5.32;1.85;;;19.00;99.90;;;;;;5030208;28;20040;-68
2023/09/30 09:14:05;;;;;;;4.40;1.65;;;19.20;99.90;;;;;;4991333;28;20037;-68
2023/09/30 09:17:45;;;;;;;6.55;2.05;;;19.10;99.90;;;;;;5011234;28;20499;-67
2023/09/30 09:20:35;;;;;;;6.20;1.85;;;19.40;99.90;;;;;;4988188;28;20038;-68
2023/09/30 09:23:16;;;;;;;5.88;1.95;;;19.60;99.90;;;;;;4988419;28;20042;-68
2023/09/30 09:26:29;;;;;;;2.75;1.20;;;19.10;99.90;;;;;;4991516;28;20030;-68
2023/09/30 09:29:14;;;;;;;6.85;1.75;;;19.60;99.90;;;;;;4988592;28;20124;-68
2023/09/30 09:32:18;;;;;;;3.38;1.65;;;19.50;99.90;;;;;;4988130;28;20161;-68
2023/09/30 09:35:08;;;;;;;4.68;1.58;;;19.90;99.90;;;;;;4987666;28;20053;-69
2023/09/30 09:38:34;;;;;;;3.40;1.35;;;20.00;99.90;;;;;;4981556;28;20600;-69
2023/09/30 09:41:30;;;;;;;11.75;2.08;;;19.90;99.90;;;;;;4959749;28;20523;-66
2023/09/30 09:44:21;;;;;;;6.22;1.73;;;19.80;99.90;;;;;;4983226;28;20070;-69
2023/09/30 09:47:29;;;;;;;5.13;2.33;;;20.00;99.90;;;;;;4977166;28;20537;-69
2023/09/30 09:50:16;;;;;;;8.63;1.90;;;20.10;99.90;;;;;;4973056;28;20526;-69
2023/09/30 09:52:58;;;;;;;9.13;2.65;;;20.00;99.90;;;;;;4963417;28;20038;-69
2023/09/30 09:55:31;;;;;;;5.30;1.75;;;20.10;99.90;;;;;;4970869;28;20109;-69
2023/09/30 09:58:03;;;;;;;5.60;2.00;;;20.50;99.90;;;;;;4988572;28;20038;-69
2023/09/30 10:00:31;;;;;;;7.18;3.05;;;20.60;99.90;;;;;;4973577;28;20038;-69
2023/09/30 10:02:57;;;;;;;6.78;2.05;;;20.90;99.90;;;;;;4984399;28;20124;-67
2023/09/30 10:05:27;;;;;;;8.15;2.95;;;21.20;99.90;;;;;;5015358;28;20124;-66
2023/09/30 10:08:17;;;;;;;10.13;2.60;;;21.50;99.90;;;;;;5036755;22;20634;-70
2023/09/30 10:10:49;;;;;;;5.18;2.10;;;21.30;99.90;;;;;;5018329;28;20057;-71
2023/09/30 10:17:10;;;;;;;8.77;2.83;;;21.10;99.90;;;;;;4979085;28;20051;-71
2023/09/30 10:20:46;;;;;;;8.85;1.77;;;20.60;99.90;;;;;;4977177;28;20443;-71
2023/09/30 10:23:39;;;;;;;9.43;2.72;;;21.30;99.90;;;;;;4943485;28;20172;-71
2023/09/30 10:26:23;;;;;;;7.20;2.17;;;21.70;99.90;;;;;;4966854;28;20030;-71
2023/09/30 10:28:55;;;;;;;12.32;2.83;;;21.90;99.90;;;;;;4960344;28;20058;-72
2023/09/30 10:31:30;;;;;;;4.93;2.00;;;22.10;99.90;;;;;;4971255;28;20463;-72
2023/09/30 10:34:23;;;;;;;5.40;1.75;;;21.90;99.90;;;;;;4971140;28;20505;-71
2023/09/30 10:37:25;;;;;;;9.40;2.25;;;22.30;99.90;;;;;;4981748;28;20051;-71
2023/09/30 10:40:02;;;;;;;3.80;2.10;;;22.80;99.90;;;;;;4973216;28;20039;-70
2023/09/30 10:42:55;;;;;;;6.53;2.00;;;22.60;99.90;;;;;;4991868;28;20022;-71
2023/09/30 10:45:58;;;;;;;5.93;2.40;;;22.90;99.10;;;;;;4979003;28;20044;-71
2023/09/30 10:48:34;;;;;;;4.97;1.90;;;22.70;98.80;;;;;;4988210;28;20035;-71
2023/09/30 10:51:24;;;;;;;7.60;2.35;;;21.90;99.80;;;;;;4966207;28;20135;-71
2023/09/30 10:54:24;;;;;;;6.40;2.43;;;22.40;99.80;;;;;;5014722;28;20072;-71
2023/09/30 10:56:59;;;;;;;5.45;1.70;;;22.80;98.40;;;;;;5002698;28;20061;-71
2023/09/30 10:59:38;;;;;;;5.15;1.80;;;23.00;98.60;;;;;;5008671;28;20046;-72
2023/09/30 11:02:17;;;;;;;4.97;1.40;;;22.20;98.70;;;;;;4990508;28;20033;-72
2023/09/30 11:11:14;;;;;;;9.05;2.40;;;23.10;98.50;;;;;;5006199;28;20553;-72
2023/09/30 11:13:49;;;;;;;3.97;1.60;;;23.70;97.50;;;;;;5010290;28;20045;-72
2023/09/30 11:16:23;;;;;;;7.07;2.38;;;24.00;96.90;;;;;;5016432;28;20090;-71
2023/09/30 11:18:55;;;;;;;4.25;1.48;;;23.80;96.40;;;;;;4966847;28;20390;-70
2023/09/30 11:21:36;;;;;;;7.40;2.40;;;23.90;96.50;;;;;;4982581;28;20046;-71
2023/09/30 11:24:02;;;;;;;;;;;24.00;97.00;;;;;;5002764;28;20033;-71
2023/09/30 11:27:33;;;;;;;6.03;2.30;;;23.80;96.20;;;;;;4991730;28;19921;-72
2023/09/30 11:31:29;;;;;;;13.95;5.80;;;23.80;95.50;;;;;;4926818;29;20130;-71
2023/09/30 11:34:19;;;;;;;7.10;2.40;;;24.00;96.30;;;;;;4883747;29;20135;-72
2023/09/30 11:39:35;;;;;;;6.32;2.03;;;26.50;92.10;;;;;;4922324;29;20146;-71
2023/09/30 11:42:36;;;;;;;4.70;1.77;;;26.30;91.50;;;;;;4949088;29;20131;-71
2023/09/30 11:46:02;;;;;;;7.50;2.92;;;27.90;90.20;;;;;;4919876;29;20029;-71
2023/09/30 11:48:38;;;;;;;6.13;1.60;;;27.80;87.70;;;;;;4875876;29;20395;-71
2023/09/30 11:51:12;;;;;;;4.22;1.88;;;28.10;83.90;;;;;;4872375;29;20036;-72
2023/09/30 11:53:50;;;;;;;6.57;1.88;;;27.80;86.20;;;;;;4875705;29;20237;-71
2023/09/30 11:56:50;;;;;;;5.32;2.03;;;28.70;83.10;;;;;;4876989;29;20509;-72
2023/09/30 11:59:22;;;;;;;8.30;1.83;;;28.30;81.90;;;;;;4892255;29;20538;-71
2023/09/30 12:02:12;;;;;;;12.63;1.85;;;29.00;79.40;;;;;;4884843;29;20039;-72
2023/09/30 12:04:42;;;;;;;7.47;1.97;;;28.70;78.60;;;;;;4875487;29;20037;-72
2023/09/30 12:07:43;;;;;;;;;;;28.00;79.20;;;;;;4960136;28;20053;-71
2023/09/30 12:10:20;;;;;;;7.40;2.17;;;29.20;76.70;;;;;;4949632;28;19921;-72
2023/09/30 12:13:15;;;;;;;5.68;1.58;;;29.70;76.60;;;;;;4964538;28;20086;-72
2023/09/30 12:19:20;;;;;;;5.55;1.45;;;29.60;77.00;;;;;;4970116;28;20047;-72
2023/09/30 12:22:20;;;;;;;4.72;1.98;;;28.90;76.10;;;;;;4942760;29;20449;-72
2023/09/30 12:24:55;;;;;;;7.55;1.85;;;28.80;75.70;;;;;;4920922;28;20042;-72
2023/09/30 12:27:39;;;;;;;3.75;1.60;;;29.90;74.20;;;;;;4989690;28;20039;-72
2023/09/30 12:30:13;;;;;;;7.63;1.65;;;29.80;73.00;;;;;;4978844;28;20034;-72
2023/09/30 12:32:51;;;;;;;5.18;1.85;;;30.60;70.80;;;;;;5004336;28;20049;-72
2023/09/30 12:35:19;;;;;;;7.97;2.03;;;27.20;76.20;;;;;;4985428;28;20047;-72
2023/09/30 12:38:11;;;;;;;9.25;2.00;;;27.00;80.40;;;;;;5003981;28;20154;-72
2023/09/30 12:40:46;;;;;;;7.63;2.25;;;29.60;73.90;;;;;;4931361;29;20119;-72
2023/09/30 12:43:17;;;;;;;6.63;2.03;;;29.30;72.60;;;;;;4913507;29;20481;-72
2023/09/30 12:46:01;;;;;;;4.60;1.60;;;28.90;73.00;;;;;;4940207;28;20062;-72
2023/09/30 12:48:30;;;;;;;6.50;1.77;;;27.90;74.60;;;;;;4949858;28;20433;-72
2023/09/30 12:51:20;;;;;;;3.50;1.52;;;28.60;73.50;;;;;;4949960;28;20548;-72
2023/09/30 12:57:33;;;;;;;7.97;2.78;;;27.40;76.30;;;;;;4950424;28;20129;-72
2023/09/30 13:00:03;;;;;;;6.30;1.95;;;27.50;75.80;;;;;;4949856;28;20728;-72
2023/09/30 13:02:29;;;;;;;7.13;2.05;;;25.20;78.40;;;;;;4948058;28;20082;-73
2023/09/30 13:04:54;;;;;;;4.13;1.67;;;25.30;81.30;;;;;;4934264;29;20039;-71
2023/09/30 13:07:26;;;;;;;7.10;1.83;;;24.30;83.00;;;;;;4949316;28;20033;-71
2023/09/30 13:10:29;;;;;;;6.72;1.95;;;26.40;79.40;;;;;;4949873;28;20134;-71
2023/09/30 13:13:07;;;;;;;6.30;2.30;;;27.30;77.90;;;;;;4945805;28;20127;-71
2023/09/30 13:15:33;;;;;;;7.50;1.73;;;27.60;76.20;;;;;;4949463;28;20035;-72
2023/09/30 13:18:05;;;;;;;4.97;1.83;;;28.40;74.00;;;;;;4997363;28;20398;-71
2023/09/30 13:20:34;;;;;;;5.50;1.80;;;28.00;74.30;;;;;;5018279;28;20025;-72
2023/09/30 13:23:21;;;;;;;4.35;1.73;;;28.30;73.20;;;;;;5030375;28;20030;-71
2023/09/30 13:25:47;;;;;;;5.97;2.38;;;27.40;74.00;;;;;;5010365;28;20455;-71
2023/09/30 13:28:13;;;;;;;7.20;2.03;;;27.70;74.60;;;;;;5010828;28;20088;-71
2023/09/30 13:31:01;;;;;;;8.13;1.80;;;26.90;76.30;;;;;;5019969;28;20029;-71
2023/09/30 13:33:27;;;;;;;5.28;1.85;;;28.30;73.60;;;;;;5018515;28;20021;-72
2023/09/30 13:36:28;;;;;;;3.20;1.67;;;27.20;74.20;;;;;;4998169;28;20089;-71
2023/09/30 13:39:05;;;;;;;7.40;2.25;;;28.00;72.70;;;;;;4986380;28;20037;-71
2023/09/30 13:41:52;;;;;;;6.80;2.38;;;26.80;73.90;;;;;;5012744;28;20456;-71
2023/09/30 13:44:18;;;;;;;6.32;1.90;;;27.40;75.20;;;;;;5019918;28;20030;-71
2023/09/30 13:47:35;;;;;;;5.35;1.98;;;27.20;73.60;;;;;;5013289;28;20036;-72
2023/09/30 13:50:19;;;;;;;4.50;1.70;;;26.40;74.50;;;;;;5001966;28;20589;-72
2023/09/30 13:53:31;;;;;;;6.75;2.30;;;26.40;75.90;;;;;;4994118;28;20029;-72
2023/09/30 13:55:57;;;;;;;6.15;1.75;;;27.30;75.50;;;;;;5007692;28;20033;-71
2023/09/30 13:59:34;;;;;;;12.00;2.42;;;26.10;76.80;;;;;;5008687;28;20205;-71
2023/09/30 14:02:31;;;;;;;4.05;1.33;;;26.90;75.20;;;;;;4949203;28;20126;-71
2023/09/30 14:04:59;;;;;;;6.35;1.70;;;26.50;75.30;;;;;;4978841;28;20540;-71
2023/09/30 14:07:31;;;;;;;5.60;1.95;;;26.10;76.30;;;;;;5024121;28;20049;-71
2023/09/30 14:10:33;;;;;;;8.05;2.15;;;25.50;76.70;;;;;;5028186;28;20036;-71
2023/09/30 14:13:27;;;;;;;7.47;1.75;;;25.60;76.60;;;;;;5025396;28;20037;-71
2023/09/30 14:15:59;;;;;;;5.00;1.70;;;25.50;77.60;;;;;;5020108;28;20040;-71
2023/09/30 14:18:28;;;;;;;6.10;1.83;;;25.10;78.30;;;;;;5032480;28;20516;-71
2023/09/30 14:20:53;;;;;;;5.50;1.80;;;25.50;78.20;;;;;;5019767;28;20030;-71
2023/09/30 14:23:19;;;;;;;5.47;1.58;;;26.60;77.40;;;;;;5033460;28;20478;-71
2023/09/30 14:26:25;;;;;;;4.38;1.63;;;26.10;77.60;;;;;;5014896;28;20033;-71
2023/09/30 14:29:22;;;;;;;7.80;1.92;;;26.60;75.50;;;;;;5030414;28;20438;-71
2023/09/30 14:32:03;;;;;;;4.85;1.85;;;26.10;76.40;;;;;;5013811;28;20041;-71
2023/09/30 14:34:32;;;;;;;4.47;1.70;;;26.60;76.50;;;;;;5029747;28;20028;-72
2023/09/30 14:37:29;;;;;;;6.15;1.77;;;27.20;75.60;;;;;;5024830;28;20071;-71
2023/09/30 14:40:01;;;;;;;5.95;1.65;;;27.10;75.30;;;;;;4996128;28;20084;-71
2023/09/30 14:42:51;;;;;;;4.72;1.95;;;26.10;77.00;;;;;;4992654;28;20030;-71
2023/09/30 14:45:55;;;;;;;6.53;1.67;;;25.40;77.40;;;;;;5000043;28;20071;-71
2023/09/30 14:48:49;;;;;;;6.10;2.10;;;26.00;79.40;;;;;;4933365;29;20031;-71
2023/09/30 14:51:27;;;;;;;8.88;2.30;;;26.40;75.60;;;;;;4890500;29;20051;-71
2023/09/30 14:54:18;;;;;;;11.98;2.47;;;26.60;75.50;;;;;;4933138;29;20043;-71